Latest Coastal Weather Observations for Sydney Airport

IDN60701

Issued at 6:41 am EDT Sunday 17 February 2019 (issued every 10 minutes, with the page automatically refreshed every 10 minutes)

About coastal observations | Map of coastal stations | Coastal observations for NSW | Marine services | Other Formats
Station Details ID: 066037 Name: SYDNEY AIRPORT AMO Lat: -33.95 Lon: 151.17 Height: 6.0 m
Data from the previous 72 hours. | See also: Recent months at Sydney Airport
Date/Time
EDT
Wind Sea
Height
m
Swell Vis
km
Cloud Weather Temp
°C
Press
hPa
Rain since
9am
mm
Dir  Spd
kts
Gust
kts
Height
m
Period
s
Dir
17/06:30am N 3 4 - - - - 10 Clear - 21.5 1014.3 0.0
17/06:00am NNE 3 4 - - - - 30 Mostly clear Fine 21.3 1014.1 0.0
17/05:30am NNW 3 4 - - - - 10 - - 20.6 1014.2 0.0
17/05:00am NW 3 4 - - - - 10 - - 20.9 1014.2 0.0
17/04:30am WNW 4 5 - - - - 10 - - 20.5 1014.3 0.0
17/04:00am NW 4 5 - - - - 10 - - 21.3 1014.4 0.0
17/03:30am WNW 4 5 - - - - 10 - - 21.4 1014.7 0.0
17/03:00am NW 5 6 - - - - 30 Partly cloudy Fine 21.9 1014.8 0.0
17/02:30am NW 4 5 - - - - 10 - - 22.4 1015.2 0.0
17/02:00am NW 5 6 - - - - 10 - - 22.2 1015.5 0.0
17/01:30am NW 6 8 - - - - 10 - - 22.4 1015.9 0.0
17/01:00am N 9 14 - - - - 10 - - 23.3 1016.2 0.0
17/12:30am N 12 16 - - - - 10 - - 23.4 1016.5 0.0
17/12:00am N 13 18 - - - - 30 Mostly cloudy Fine 23.9 1016.9 0.0
 
Date/Time
EDT
Wind Sea
Height
m
Swell Vis
km
Cloud Weather Temp
°C
Press
hPa
Rain since
9am
mm
Dir  Spd
kts
Gust
kts
Height
m
Period
s
Dir
16/11:30pm N 14 18 - - - - 10 - - 24.1 1016.9 0.0
16/11:00pm NNE 13 18 - - - - 10 - - 23.9 1017.1 0.0
16/10:30pm NNE 10 14 - - - - 10 - - 24.5 1017.3 0.0
16/10:00pm NNE 13 16 - - - - 10 - - 24.7 1017.2 0.0
16/09:30pm NNE 11 14 - - - - 10 - - 24.4 1017.3 0.0
16/09:00pm NNE 11 15 - - - - 30 Partly cloudy Fine 24.6 1017.3 0.0
16/08:30pm NE 13 17 - - - - 10 - - 24.5 1016.8 0.0
16/08:00pm NE 12 16 - - - - 10 - - 24.8 1016.9 0.0
16/07:30pm NE 14 19 - - - - 10 - - 24.9 1016.7 0.0
16/07:00pm NE 16 20 - - - - 10 - - 25.0 1016.7 0.0
16/06:30pm NE 16 21 - - - - 10 - - 25.4 1016.8 0.0
16/06:00pm NE 16 20 - - - - 30 Mostly cloudy Fine 25.7 1017.0 0.0
16/05:30pm ENE 18 22 - - - - 10 - - 25.7 1017.0 0.0
16/05:00pm ENE 18 21 - - - - 10 - - 26.4 1017.2 0.0
16/04:30pm ENE 16 20 - - - - 10 - - 26.7 1017.3 0.0
16/04:00pm ENE 17 20 - - - - 10 - - 26.9 1017.6 0.0
16/03:30pm ENE 16 20 - - - - 10 - - 26.9 1017.9 0.0
16/03:00pm ENE 16 18 - - - - 30 Mostly cloudy Fine 26.8 1018.4 0.0
16/02:30pm NE 13 18 - - - - 10 Mostly clear - 27.5 1018.9 0.0
16/02:00pm NE 15 20 - - - - 10 Mostly clear - 27.1 1019.2 0.0
16/01:30pm NE 13 19 - - - - 10 Mostly clear - 26.8 1019.5 0.0
16/01:00pm ENE 14 19 - - - - 10 Mostly clear - 28.6 1019.8 0.0
16/12:30pm ENE 11 16 - - - - 10 Mostly clear - 27.6 1020.1 0.0
16/12:00pm ENE 10 16 - - - - 30 Partly cloudy Fine 27.8 1020.6 0.0
16/11:30am SSE 5 7 - - - - 10 Mostly clear - 27.6 1020.9 0.0
16/11:00am NE 7 11 - - - - 10 Mostly clear - 26.5 1021.3 0.0
16/10:30am NNW 7 10 - - - - 10 Mostly clear - 25.8 1021.5 0.0
16/10:00am N 6 10 - - - - 10 Partly cloudy - 24.9 1021.8 0.0
16/09:30am WNW 5 9 - - - - 10 Mostly clear - 24.4 1021.8 0.0
16/09:00am WNW 5 9 - - - - 30 Partly cloudy Fine 23.9 1021.8 0.0
16/08:30am WNW 4 5 - - - - 10 Mostly clear - 22.2 1021.9 0.0
16/08:00am NW 5 6 - - - - 10 Mostly clear - 22.2 1021.8 0.0
16/07:30am NW 4 5 - - - - 10 Mostly clear - 20.9 1021.5 0.0
16/07:00am NW 5 7 - - - - 10 Mostly clear - 20.6 1021.5 0.0
16/06:30am NW 4 7 - - - - 10 Mostly clear - 20.9 1021.3 0.0
16/06:00am NNW 4 5 - - - - 30 Mostly clear Fine 20.6 1021.0 0.0
16/05:30am NW 4 4 - - - - 10 Mostly clear - 21.0 1021.0 0.0
16/05:00am WNW 4 6 - - - - 10 Mostly clear - 20.6 1021.0 0.0
16/04:30am W 6 7 - - - - 10 Mostly clear - 20.8 1021.1 0.0
16/04:00am WNW 5 6 - - - - 10 Partly cloudy - 20.8 1021.3 0.0
16/03:30am WNW 5 6 - - - - 10 Partly cloudy - 20.6 1021.4 0.0
16/03:00am WNW 5 6 - - - - 30 Mostly clear Fine 20.4 1021.8 0.0
16/02:30am WNW 5 6 - - - - 10 Mostly clear - 21.0 1022.0 0.0
16/02:00am WNW 5 6 - - - - 10 Mostly clear - 21.6 1022.2 0.0
16/01:30am NW 5 6 - - - - 10 Mostly clear - 22.4 1022.6 0.0
16/01:00am WNW 5 6 - - - - 10 Mostly clear - 22.6 1023.0 0.0
16/12:30am NW 5 6 - - - - 10 Mostly clear - 22.4 1023.3 0.0
16/12:00am N 3 4 - - - - 30 Mostly cloudy Fine 23.1 1023.5 0.0
 
Date/Time
EDT
Wind Sea
Height
m
Swell Vis
km
Cloud Weather Temp
°C
Press
hPa
Rain since
9am
mm
Dir  Spd
kts
Gust
kts
Height
m
Period
s
Dir
15/11:30pm N 4 4 - - - - 10 Mostly clear - 22.6 1023.6 0.0
15/11:00pm NE 5 5 - - - - 10 - - 22.5 1023.8 0.0
15/10:30pm NE 5 7 - - - - 10 - - 22.6 1024.0 0.0
15/10:00pm NE 6 8 - - - - 10 - - 23.0 1023.9 0.0
15/09:30pm NE 7 8 - - - - 10 Mostly clear - 22.7 1023.8 0.0
15/09:00pm NE 9 10 - - - - 30 Mostly clear Fine 23.0 1023.4 0.0
15/08:30pm NE 10 13 - - - - 10 Mostly clear - 23.0 1023.2 0.0
15/08:00pm ENE 11 15 - - - - 10 Mostly clear - 23.4 1022.9 0.0
15/07:30pm NE 11 14 - - - - 10 Mostly clear - 23.9 1022.7 0.0
15/07:00pm ENE 11 14 - - - - 10 Mostly clear - 24.0 1022.4 0.0
15/06:30pm E 12 16 - - - - 10 Mostly clear - 24.1 1022.1 0.0
15/06:00pm E 11 16 - - - - 30 Mostly clear Fine 24.7 1022.1 0.0
15/05:30pm E 11 17 - - - - 10 Mostly clear - 25.0 1022.2 0.0
15/05:00pm E 11 16 - - - - 10 Mostly clear - 25.1 1022.1 0.0
15/04:30pm E 10 17 - - - - 10 Mostly clear - 25.6 1022.1 0.0
15/04:00pm ENE 12 15 - - - - 10 Mostly clear - 25.9 1022.1 0.0
15/03:30pm E 13 18 - - - - 10 Mostly clear - 25.8 1022.2 0.0
15/03:00pm E 13 17 - - - - 35 Mostly clear Fine 26.1 1022.4 0.0
15/02:30pm E 14 18 - - - - 10 Mostly clear - 26.1 1022.8 0.0
15/02:00pm E 12 16 - - - - 10 Mostly clear - 26.1 1023.1 0.0
15/01:30pm ENE 11 16 - - - - 10 Mostly clear - 25.6 1023.1 0.0
15/01:00pm ENE 10 16 - - - - 10 Mostly clear - 24.7 1023.4 0.0
15/12:30pm NE 9 14 - - - - 10 Mostly clear - 25.1 1023.6 0.0
15/12:00pm NE 5 9 - - - - 35 Partly cloudy Fine 25.3 1023.9 0.0
15/11:30am SSE 6 8 - - - - 10 Partly cloudy - 24.3 1024.3 0.0
15/11:00am NW 5 10 - - - - 10 Partly cloudy - 24.0 1024.3 0.0
15/10:30am W 4 6 - - - - 10 Partly cloudy - 23.9 1024.3 0.0
15/10:00am WSW 5 7 - - - - 10 Partly cloudy - 25.1 1024.3 0.0
15/09:30am W 5 8 - - - - 10 Partly cloudy - 23.3 1024.1 0.0
15/09:00am WNW 5 7 - - - - 25 Mostly clear Fine 23.6 1024.0 0.0
15/08:30am NW 5 6 - - - - 10 Mostly clear - 22.4 1023.8 0.0
15/08:00am NW 5 6 - - - - 10 Mostly clear - 21.3 1023.6 0.0
15/07:30am NW 4 6 - - - - 10 Mostly clear - 21.8 1023.4 0.0
15/07:00am W 4 6 - - - - 10 Mostly clear - 19.8 1023.2 0.0
15/06:30am WNW 2 6 - - - - 10 Mostly clear - 19.8 1022.9 0.0
15/06:00am CALM 0 0 - - - - 25 Mostly clear Fine 20.3 1022.6 0.0
15/05:30am W 3 4 - - - - 10 Mostly clear - 20.1 1022.5 0.0
15/05:00am W 4 4 - - - - 10 Mostly clear - 20.1 1022.4 0.0
15/04:30am W 5 6 - - - - 10 Mostly clear - 19.5 1022.3 0.0
15/04:00am WNW 5 5 - - - - 10 Mostly clear - 19.8 1022.2 0.0
15/03:30am NW 5 6 - - - - 10 Partly cloudy - 19.9 1022.1 0.0
15/03:00am NW 5 6 - - - - 30 Mostly clear Fine 20.0 1022.0 0.0
15/02:30am NW 5 6 - - - - 10 Mostly clear - 20.6 1021.9 0.0
15/02:00am NW 5 6 - - - - 10 Mostly clear - 21.0 1021.9 0.0
15/01:30am N 5 5 - - - - 10 Mostly clear - 21.9 1022.0 0.0
15/01:00am NNE 7 8 - - - - 10 - - 22.1 1022.0 0.0
15/12:30am NNE 7 8 - - - - 10 - - 22.5 1021.8 0.0
15/12:00am NNE 6 8 - - - - 30 Clear Fine 22.8 1021.7 0.0
 
Date/Time
EDT
Wind Sea
Height
m
Swell Vis
km
Cloud Weather Temp
°C
Press
hPa
Rain since
9am
mm
Dir  Spd
kts
Gust
kts
Height
m
Period
s
Dir
14/11:30pm NNE 8 9 - - - - 10 - - 22.5 1021.7 0.0
14/11:00pm NNE 7 10 - - - - 10 - - 22.6 1021.6 0.0
14/10:30pm NNE 9 10 - - - - 10 - - 23.2 1021.5 0.0
14/10:00pm NNE 9 11 - - - - 10 - - 22.9 1021.3 0.0
14/09:30pm NNE 9 12 - - - - 10 - - 22.7 1020.8 0.0
14/09:00pm NNE 10 14 - - - - 30 Clear Fine 22.9 1020.3 0.0
14/08:30pm NNE 10 13 - - - - 10 - - 23.6 1019.8 0.0
14/08:00pm NE 11 15 - - - - 10 - - 23.1 1019.5 0.0
14/07:30pm NE 13 18 - - - - 10 - - 23.5 1019.1 0.0
14/07:00pm ENE 17 20 - - - - 10 - - 24.5 1018.7 0.0
14/06:30pm ENE 16 19 - - - - 10 - - 24.7 1018.6 0.0
14/06:00pm ENE 15 20 - - - - 30 Mostly clear Fine 25.1 1018.3 0.0
14/05:30pm ENE 14 18 - - - - 10 - - 24.5 1018.2 0.0
14/05:00pm ENE 13 16 - - - - 10 - - 25.2 1018.2 0.0
14/04:30pm ENE 13 17 - - - - 10 - - 24.9 1018.2 0.0
14/04:00pm E 13 16 - - - - 10 Mostly clear - 24.5 1018.3 0.0
14/03:30pm E 13 18 - - - - 10 Partly cloudy - 23.9 1018.4 0.0
14/03:00pm E 12 15 - - - - 30 Mostly clear Fine 24.0 1018.5 0.0
14/02:30pm NE 8 12 - - - - 10 Mostly clear - 25.3 1018.7 0.0
14/02:00pm E 10 15 - - - - 10 Mostly clear - 24.3 1019.1 0.0
14/01:30pm SE 9 12 - - - - 10 Partly cloudy - 22.9 1019.4 0.0
14/01:00pm S 10 13 - - - - 10 Partly cloudy - 22.9 1019.6 0.0
14/12:30pm S 11 14 - - - - 10 Mostly clear - 22.9 1019.9 0.0
14/12:00pm S 11 14 - - - - 25 Mostly cloudy Fine 21.8 1020.1 0.0
14/11:30am S 12 15 - - - - 10 Mostly clear - 22.5 1020.0 0.0
14/11:00am S 12 15 - - - - 10 Mostly clear - 22.0 1020.1 0.0
14/10:30am S 12 18 - - - - 10 Mostly clear - 21.3 1020.0 0.0
14/10:00am S 13 16 - - - - 10 Mostly clear - 21.3 1019.7 0.0
14/09:30am S 14 17 - - - - 10 Mostly clear - 20.6 1019.5 0.0
14/09:00am NNE 10 15 - - - - 25 Mostly cloudy Fine 20.6 1019.2 0.0
14/08:30am WSW 6 8 - - - - 10 Mostly clear - 18.9 1018.9 0.0
14/08:00am W 6 8 - - - - 10 Mostly clear - 18.2 1018.6 0.0
14/07:30am W 7 9 - - - - 10 Mostly clear - 18.1 1018.1 0.0
14/07:00am SW 10 13 - - - - 10 Mostly clear - 17.9 1017.7 0.0

Other Formats:

Comma delimited format used in spreadsheet applications
http://www.bom.gov.au/fwo/IDN60701/IDN60701.94767.axf

JavaScript Object Notation format (JSON) in row-major order
http://www.bom.gov.au/fwo/IDN60701/IDN60701.94767.json